createdAt,value
2022-11-29T00:01:40.384Z,98729.31
2022-11-29T00:04:09.113Z,98728.94
2022-11-29T00:06:37.914Z,98728.34
2022-11-29T00:09:09.399Z,98728.78
2022-11-29T00:11:56.738Z,98727.75
2022-11-29T00:14:26.051Z,98726.72
2022-11-29T00:16:57.076Z,98723.53
2022-11-29T00:19:25.749Z,98733.13
2022-11-29T00:21:54.541Z,98717.94
2022-11-29T00:24:24.935Z,98720.13
2022-11-29T00:26:53.553Z,98723.53
2022-11-29T00:29:22.154Z,98723.53
2022-11-29T00:31:50.824Z,98720.53
2022-11-29T00:34:19.519Z,98723.53
2022-11-29T00:36:48.152Z,98718.31
2022-11-29T00:39:16.801Z,98720.94
2022-11-29T00:41:47.456Z,98724.31
2022-11-29T00:44:20.226Z,98725.72
2022-11-29T00:46:49.406Z,98721.31
2022-11-29T00:49:18.190Z,98725.13
2022-11-29T00:51:46.927Z,98727.94
2022-11-29T00:54:15.617Z,98718.53
2022-11-29T00:56:45.867Z,98724.13
2022-11-29T00:59:14.488Z,98722.34
2022-11-29T01:01:43.139Z,98730.16
2022-11-29T01:04:11.771Z,98728.72
2022-11-29T01:06:40.446Z,98725.13
2022-11-29T01:09:09.036Z,98729.13
2022-11-29T01:11:37.888Z,98729.56
2022-11-29T01:14:07.846Z,98728.53
2022-11-29T01:16:36.493Z,98725.16
2022-11-29T01:19:07.182Z,98723.94
2022-11-29T01:21:35.890Z,98732.16
2022-11-29T01:24:04.800Z,98736.72
2022-11-29T01:26:33.455Z,98734.72
2022-11-29T01:29:02.027Z,98735.75
2022-11-29T01:31:35.929Z,98739.16
2022-11-29T01:34:06.196Z,98736.19
2022-11-29T01:36:35.258Z,98740.34
2022-11-29T01:39:05.602Z,98745.94
2022-11-29T01:41:36.287Z,98744.31
2022-11-29T01:44:07.188Z,98727.72
2022-11-29T01:46:38.793Z,98736.91
2022-11-29T01:49:12.669Z,98731.91
2022-11-29T01:51:44.609Z,98729.72
2022-11-29T01:54:14.015Z,98731.13
2022-11-29T01:56:43.483Z,98733.13
2022-11-29T01:59:14.412Z,98732.13
2022-11-29T02:01:44.411Z,98729.13
2022-11-29T02:04:13.146Z,98731.72
2022-11-29T02:06:42.542Z,98733.53
2022-11-29T02:09:17.869Z,98719.31
2022-11-29T02:12:00.112Z,98730.94
2022-11-29T02:14:48.105Z,98726.34
2022-11-29T02:17:23.737Z,98734.19
2022-11-29T02:20:06.818Z,98730.78
2022-11-29T02:22:40.222Z,98739.31
2022-11-29T02:25:23.566Z,98731.13
2022-11-29T02:28:13.390Z,98736.31
2022-11-29T02:30:56.568Z,98737.94
2022-11-29T02:33:50.910Z,98740.72
2022-11-29T02:36:38.383Z,98737.50
2022-11-29T02:39:27.645Z,98732.31
2022-11-29T02:42:07.512Z,98732.94
2022-11-29T02:44:47.762Z,98731.31
2022-11-29T02:47:26.732Z,98744.31
2022-11-29T02:50:13.122Z,98737.13
2022-11-29T02:52:49.074Z,98737.16
2022-11-29T02:55:22.448Z,98741.13
2022-11-29T02:57:58.573Z,98738.19
2022-11-29T03:00:27.572Z,98740.34
2022-11-29T03:03:02.171Z,98738.72
2022-11-29T03:05:40.851Z,98741.31
2022-11-29T03:08:18.020Z,98740.53
2022-11-29T03:10:56.651Z,98746.53
2022-11-29T03:13:31.972Z,98744.91
2022-11-29T03:16:07.305Z,98744.38
2022-11-29T03:18:45.907Z,98751.78
2022-11-29T03:21:20.398Z,98756.16
2022-11-29T03:23:50.636Z,98750.94
2022-11-29T03:26:24.094Z,98757.94
2022-11-29T03:29:01.238Z,98745.94
2022-11-29T03:31:33.305Z,98753.34
2022-11-29T03:34:09.990Z,98751.53
2022-11-29T03:36:45.704Z,98756.34
2022-11-29T03:39:19.172Z,98763.53
2022-11-29T03:41:50.790Z,98752.94
2022-11-29T03:44:22.341Z,98756.16
2022-11-29T03:46:55.421Z,98757.16
2022-11-29T03:49:27.586Z,98756.59
2022-11-29T03:52:04.010Z,98763.94
2022-11-29T03:54:36.954Z,98767.56
2022-11-29T03:57:06.783Z,98754.78
2022-11-29T03:59:48.275Z,98768.78
2022-11-29T04:03:16.383Z,98769.19
2022-11-29T04:05:55.584Z,98770.38
2022-11-29T04:08:47.450Z,98767.38
2022-11-29T04:11:58.910Z,98768.59
2022-11-29T04:15:09.521Z,98769.56
2022-11-29T04:18:13.509Z,98773.59
2022-11-29T04:21:02.356Z,98773.22
2022-11-29T04:23:50.931Z,98781.59
2022-11-29T04:26:35.065Z,98773.81
2022-11-29T04:29:14.714Z,98782.81
2022-11-29T04:31:59.571Z,98782.00
2022-11-29T04:34:44.217Z,98783.59
2022-11-29T04:37:23.126Z,98782.44
2022-11-29T04:40:06.302Z,98786.41
2022-11-29T04:43:07.652Z,98791.22
2022-11-29T04:45:54.158Z,98788.81
2022-11-29T04:48:34.694Z,98790.41
2022-11-29T04:51:14.052Z,98793.63
2022-11-29T04:53:56.331Z,98796.03
2022-11-29T04:56:32.592Z,98788.63
2022-11-29T04:59:04.466Z,98795.63
2022-11-29T05:01:39.971Z,98798.03
2022-11-29T05:04:15.173Z,98796.81
2022-11-29T05:06:49.441Z,98799.41
2022-11-29T05:09:26.197Z,98797.19
2022-11-29T05:12:01.718Z,98805.00
2022-11-29T05:14:37.246Z,98797.84
2022-11-29T05:17:21.838Z,98800.44
2022-11-29T05:19:57.726Z,98807.22
2022-11-29T05:22:32.863Z,98802.44
2022-11-29T05:25:13.842Z,98801.84
2022-11-29T05:27:47.080Z,98803.25
2022-11-29T05:30:16.434Z,98816.25
2022-11-29T05:32:54.060Z,98810.50
2022-11-29T05:35:51.659Z,98815.06
2022-11-29T05:38:33.050Z,98821.09
2022-11-29T05:41:13.454Z,98815.25
2022-11-29T05:43:54.985Z,98816.88
2022-11-29T05:46:27.860Z,98814.28
2022-11-29T05:49:02.438Z,98818.66
2022-11-29T05:51:39.010Z,98818.47
2022-11-29T05:54:15.992Z,98824.66
2022-11-29T05:56:50.101Z,98825.66
2022-11-29T05:59:22.519Z,98820.84
2022-11-29T06:01:58.529Z,98826.63
2022-11-29T06:04:31.947Z,98825.66
2022-11-29T06:07:05.486Z,98827.06
2022-11-29T06:09:37.321Z,98832.09
2022-11-29T06:12:10.944Z,98834.69
2022-11-29T06:15:03.979Z,98834.09
2022-11-29T06:17:43.777Z,98833.66
2022-11-29T06:20:31.531Z,98842.88
2022-11-29T06:23:23.155Z,98837.03
2022-11-29T06:26:04.143Z,98847.44
2022-11-29T06:28:43.920Z,98854.25
2022-11-29T06:31:17.770Z,98848.66
2022-11-29T06:33:53.879Z,98855.88
2022-11-29T06:36:27.997Z,98858.09
2022-11-29T06:38:56.884Z,98859.06
2022-11-29T06:41:26.297Z,98870.28
2022-11-29T06:43:55.398Z,98868.09
2022-11-29T06:46:35.743Z,98868.91
2022-11-29T06:49:08.514Z,98866.47
2022-11-29T06:51:42.102Z,98868.09
2022-11-29T06:54:20.995Z,98869.31
2022-11-29T06:56:53.391Z,98872.13
2022-11-29T06:59:33.343Z,98872.56
2022-11-29T07:02:10.262Z,98876.75
2022-11-29T07:04:49.682Z,98874.78
2022-11-29T07:07:21.136Z,98878.97
2022-11-29T07:09:52.760Z,98887.59
2022-11-29T07:12:22.057Z,98888.56
2022-11-29T07:14:51.170Z,98895.56
2022-11-29T07:17:25.071Z,98894.19
2022-11-29T07:20:02.597Z,98889.00
2022-11-29T07:22:41.174Z,98896.97
2022-11-29T07:25:20.247Z,98896.81
2022-11-29T07:27:56.582Z,98903.78
2022-11-29T07:30:29.316Z,98903.78
2022-11-29T07:33:07.189Z,98904.59
2022-11-29T07:35:43.315Z,98906.19
2022-11-29T07:38:19.251Z,98902.22
2022-11-29T07:40:53.431Z,98901.22
2022-11-29T07:43:30.763Z,98911.25
2022-11-29T07:45:59.507Z,98901.63
2022-11-29T07:48:29.439Z,98909.88
2022-11-29T07:50:58.249Z,98901.09
2022-11-29T07:53:26.877Z,98910.28
2022-11-29T07:55:55.551Z,98913.72
2022-11-29T07:58:24.326Z,98917.09
2022-11-29T08:00:52.996Z,98918.28
2022-11-29T08:03:21.722Z,98911.31
2022-11-29T08:05:51.712Z,98919.91
2022-11-29T08:08:20.376Z,98921.91
2022-11-29T08:10:49.706Z,98916.91
2022-11-29T08:13:20.182Z,98916.38
2022-11-29T08:15:49.485Z,98922.75
2022-11-29T08:18:18.512Z,98921.13
2022-11-29T08:20:47.160Z,98925.94
2022-11-29T08:23:17.199Z,98919.94
2022-11-29T08:25:45.835Z,98921.91
2022-11-29T08:28:14.417Z,98930.75
2022-11-29T08:30:43.018Z,98931.28
2022-11-29T08:33:11.668Z,98929.72
2022-11-29T08:35:42.087Z,98932.91
2022-11-29T08:38:10.750Z,98935.75
2022-11-29T08:40:40.755Z,98938.94
2022-11-29T08:43:09.413Z,98939.16
2022-11-29T08:45:38.087Z,98939.78
2022-11-29T08:48:07.634Z,98942.78
2022-11-29T08:50:36.315Z,98943.78
2022-11-29T08:53:24.875Z,98943.56
2022-11-29T08:55:54.835Z,98942.97
2022-11-29T08:58:24.066Z,98946.19
2022-11-29T09:00:53.189Z,98943.56
2022-11-29T09:03:40.069Z,98940.56
2022-11-29T09:06:12.560Z,98946.00
2022-11-29T09:08:43.675Z,98952.81
2022-11-29T09:11:15.972Z,98949.63
2022-11-29T09:13:46.505Z,98956.44
2022-11-29T09:16:17.941Z,98957.88
2022-11-29T09:18:51.954Z,98961.25
2022-11-29T09:21:20.821Z,98968.72
2022-11-29T09:23:49.433Z,98965.09
2022-11-29T09:26:20.637Z,98964.44
2022-11-29T09:28:49.236Z,98962.41
2022-11-29T09:31:18.040Z,98971.25
2022-11-29T09:33:46.854Z,98966.47
2022-11-29T09:36:15.882Z,98963.31
2022-11-29T09:38:44.620Z,98972.94
2022-11-29T09:41:26.871Z,98972.38
2022-11-29T09:44:03.519Z,98974.16
2022-11-29T09:46:37.719Z,98977.38
2022-11-29T09:49:26.885Z,98985.41
2022-11-29T09:52:00.981Z,98984.44
2022-11-29T09:54:35.877Z,98981.00
2022-11-29T09:57:10.884Z,98980.22
2022-11-29T09:59:42.750Z,98989.44
2022-11-29T10:02:21.316Z,98980.47
2022-11-29T10:04:53.950Z,98989.44
2022-11-29T10:07:26.452Z,98989.00
2022-11-29T10:09:58.059Z,98988.25
2022-11-29T10:12:31.869Z,98988.25
2022-11-29T10:15:08.311Z,98993.03
2022-11-29T10:17:39.920Z,98986.84
2022-11-29T10:20:14.236Z,98997.44
2022-11-29T10:22:48.294Z,98991.22
2022-11-29T10:25:22.835Z,98988.63
2022-11-29T10:27:54.400Z,98984.78
2022-11-29T10:30:23.486Z,98989.66
2022-11-29T10:32:57.129Z,98987.03
2022-11-29T10:35:26.107Z,98990.25
2022-11-29T10:38:29.103Z,98980.81
2022-11-29T10:40:48.884Z,98982.19
2022-11-29T10:43:18.899Z,98986.41
2022-11-29T10:45:50.627Z,98993.00
2022-11-29T10:48:21.196Z,98987.78
2022-11-29T10:50:51.615Z,98979.97
2022-11-29T10:53:21.659Z,98989.00
2022-11-29T10:55:51.741Z,98989.00
2022-11-29T10:58:28.063Z,98981.41
2022-11-29T11:00:58.938Z,98980.41
2022-11-29T11:03:35.092Z,98986.66
2022-11-29T11:06:13.618Z,98989.47
2022-11-29T11:08:44.314Z,98982.22
2022-11-29T11:11:14.143Z,98981.84
2022-11-29T11:13:44.227Z,98991.84
2022-11-29T11:16:18.141Z,98992.06
2022-11-29T11:18:47.913Z,98989.22
2022-11-29T11:21:18.613Z,98987.03
2022-11-29T11:23:53.829Z,98985.03
2022-11-29T11:26:23.134Z,98988.66
2022-11-29T11:28:56.204Z,98987.47
2022-11-29T11:31:30.147Z,98986.69
2022-11-29T11:34:19.380Z,98984.69
2022-11-29T11:36:48.077Z,98988.72
2022-11-29T11:39:21.221Z,98989.44
2022-11-29T11:42:08.806Z,98986.78
2022-11-29T11:44:48.887Z,98999.81
2022-11-29T11:47:19.563Z,98994.81
2022-11-29T11:49:51.174Z,98995.84
2022-11-29T11:52:22.001Z,98994.66
2022-11-29T11:54:54.195Z,98998.25
2022-11-29T11:57:23.397Z,99000.66
2022-11-29T11:59:54.948Z,99001.69
2022-11-29T12:02:29.004Z,99003.88
2022-11-29T12:05:00.577Z,98999.47
2022-11-29T12:08:06.111Z,99005.47
2022-11-29T12:10:24.939Z,99010.63
2022-11-29T12:12:54.784Z,99004.03
2022-11-29T12:15:27.322Z,99003.22
2022-11-29T12:18:01.700Z,99020.25
2022-11-29T12:20:32.339Z,99010.47
2022-11-29T12:23:19.783Z,99023.69
2022-11-29T12:25:52.415Z,99011.25
2022-11-29T12:28:22.368Z,99017.06
2022-11-29T12:30:59.373Z,99015.50
2022-11-29T12:33:37.441Z,99021.13
2022-11-29T12:36:15.458Z,99018.34
2022-11-29T12:38:53.867Z,99022.56
2022-11-29T12:41:30.666Z,99023.16
2022-11-29T12:44:06.607Z,99030.56
2022-11-29T12:46:38.174Z,99024.34
2022-11-29T12:49:12.719Z,99029.53
2022-11-29T12:51:47.630Z,99023.56
2022-11-29T12:54:27.168Z,99029.75
2022-11-29T12:57:01.267Z,99028.94
2022-11-29T12:59:41.858Z,99027.78
2022-11-29T13:02:25.427Z,99038.38
2022-11-29T13:05:00.050Z,99032.34
2022-11-29T13:07:36.224Z,99032.16
2022-11-29T13:10:18.439Z,99032.59
2022-11-29T13:12:49.705Z,99041.38
2022-11-29T13:15:20.474Z,99035.78
2022-11-29T13:17:55.765Z,99042.63
2022-11-29T13:20:32.776Z,99039.63
2022-11-29T13:23:09.183Z,99037.03
2022-11-29T13:25:40.239Z,99039.63
2022-11-29T13:28:13.154Z,99043.66
2022-11-29T13:30:42.161Z,99045.47
2022-11-29T13:33:20.118Z,99049.63
2022-11-29T13:35:52.340Z,99035.59
2022-11-29T13:38:24.502Z,99042.41
2022-11-29T13:40:58.350Z,99040.00
2022-11-29T13:43:30.997Z,99051.22
2022-11-29T13:46:05.569Z,99045.03
2022-11-29T13:48:49.201Z,99050.22
2022-11-29T13:51:27.084Z,99050.63
2022-11-29T13:53:57.012Z,99052.78
2022-11-29T13:56:36.827Z,99048.22
2022-11-29T13:59:10.224Z,99055.22
2022-11-29T14:01:46.970Z,99056.22
2022-11-29T14:04:24.600Z,99065.25
2022-11-29T14:07:03.854Z,99061.44
2022-11-29T14:09:38.632Z,99069.84
2022-11-29T14:12:20.602Z,99062.41
2022-11-29T14:14:52.489Z,99065.22
2022-11-29T14:17:49.138Z,99060.00
2022-11-29T14:20:59.249Z,99068.19
2022-11-29T14:23:39.037Z,99077.19
2022-11-29T14:26:28.758Z,99072.56
2022-11-29T14:28:59.116Z,99072.38
2022-11-29T14:31:50.532Z,99077.59
2022-11-29T14:34:27.783Z,99079.56
2022-11-29T14:37:00.597Z,99072.50
2022-11-29T14:39:32.503Z,99076.47
2022-11-29T14:42:14.412Z,99081.50
2022-11-29T14:44:45.332Z,99081.69
2022-11-29T14:47:24.013Z,99081.47
2022-11-29T14:49:54.300Z,99077.63
2022-11-29T14:52:31.601Z,99084.22
2022-11-29T14:55:03.197Z,99083.38
2022-11-29T14:58:11.577Z,99092.63
2022-11-29T15:01:08.190Z,99091.63
2022-11-29T15:03:44.046Z,99097.81
2022-11-29T15:06:16.077Z,99090.22
2022-11-29T15:08:57.234Z,99099.44
2022-11-29T15:11:35.652Z,99093.78
2022-11-29T15:14:07.273Z,99092.94
2022-11-29T15:16:45.195Z,99101.00
2022-11-29T15:19:55.115Z,99101.38
2022-11-29T15:22:27.538Z,99107.75
2022-11-29T15:25:01.104Z,99107.75
2022-11-29T15:27:30.000Z,99112.16
2022-11-29T15:29:59.892Z,99105.34
2022-11-29T15:32:31.038Z,99102.94
2022-11-29T15:34:59.876Z,99108.94
2022-11-29T15:37:42.631Z,99114.56
2022-11-29T15:40:17.753Z,99112.34
2022-11-29T15:42:49.882Z,99117.19
2022-11-29T15:45:26.639Z,99124.16
2022-11-29T15:47:55.748Z,99128.16
2022-11-29T15:50:26.695Z,99132.34
2022-11-29T15:52:58.660Z,99135.97
2022-11-29T15:55:28.949Z,99131.56
2022-11-29T15:58:02.628Z,99135.53
2022-11-29T16:00:34.180Z,99138.13
2022-11-29T16:03:04.227Z,99143.94
2022-11-29T16:05:34.358Z,99144.50
2022-11-29T16:08:05.292Z,99140.66
2022-11-29T16:10:36.956Z,99138.44
2022-11-29T16:13:09.165Z,99142.66
2022-11-29T16:15:38.605Z,99149.63
2022-11-29T16:18:13.166Z,99146.69
2022-11-29T16:20:41.858Z,99148.47
2022-11-29T16:23:14.733Z,99146.31
2022-11-29T16:25:57.471Z,99149.28
2022-11-29T16:28:28.978Z,99151.88
2022-11-29T16:30:58.436Z,99155.47
2022-11-29T16:33:27.352Z,99154.28
2022-11-29T16:36:05.396Z,99161.28
2022-11-29T16:38:34.257Z,99160.03
2022-11-29T16:41:07.247Z,99161.66
2022-11-29T16:43:48.596Z,99167.22
2022-11-29T16:46:36.664Z,99162.81
2022-11-29T16:49:34.404Z,99169.03
2022-11-29T16:52:03.936Z,99170.44
2022-11-29T16:54:34.216Z,99178.81
2022-11-29T16:57:06.787Z,99166.63
2022-11-29T16:59:36.435Z,99167.41
2022-11-29T17:02:07.309Z,99169.41
2022-11-29T17:04:36.070Z,99171.38
2022-11-29T17:07:07.504Z,99172.34
2022-11-29T17:09:36.626Z,99169.56
2022-11-29T17:12:07.293Z,99172.81
2022-11-29T17:14:35.951Z,99169.56
2022-11-29T17:17:04.628Z,99173.19
2022-11-29T17:19:33.276Z,99166.16
2022-11-29T17:22:01.979Z,99173.19
2022-11-29T17:24:30.646Z,99171.56
2022-11-29T17:26:59.343Z,99173.91
2022-11-29T17:29:29.312Z,99183.50
2022-11-29T17:31:58.680Z,99185.91
2022-11-29T17:34:27.376Z,99176.69
2022-11-29T17:36:56.042Z,99177.50
2022-11-29T17:39:24.638Z,99181.28
2022-11-29T17:41:53.244Z,99181.09
2022-11-29T17:44:21.894Z,99190.50
2022-11-29T17:46:51.898Z,99182.53
2022-11-29T17:49:20.501Z,99189.50
2022-11-29T17:51:52.388Z,99186.91
2022-11-29T17:54:21.961Z,99186.09
2022-11-29T17:56:50.703Z,99192.47
2022-11-29T17:59:19.361Z,99193.44
2022-11-29T18:01:48.168Z,99197.13
2022-11-29T18:04:18.372Z,99206.91
2022-11-29T18:06:50.041Z,99204.31
2022-11-29T18:09:20.020Z,99203.06
2022-11-29T18:11:50.430Z,99204.03
2022-11-29T18:14:20.920Z,99206.41
2022-11-29T18:16:50.021Z,99210.25
2022-11-29T18:19:22.425Z,99210.88
2022-11-29T18:21:51.632Z,99213.47
2022-11-29T18:24:20.465Z,99211.22
2022-11-29T18:26:49.114Z,99210.44
2022-11-29T18:29:17.757Z,99216.44
2022-11-29T18:31:47.170Z,99208.63
2022-11-29T18:34:16.166Z,99216.81
2022-11-29T18:36:47.508Z,99225.84
2022-11-29T18:39:17.662Z,99228.66
2022-11-29T18:41:47.795Z,99244.25
2022-11-29T18:44:18.542Z,99238.03
2022-11-29T18:46:47.491Z,99234.28
2022-11-29T18:49:17.567Z,99239.66
2022-11-29T18:51:48.547Z,99228.97
2022-11-29T18:54:18.537Z,99235.44
2022-11-29T18:56:47.486Z,99239.22
2022-11-29T18:59:17.804Z,99234.47
2022-11-29T19:01:48.418Z,99237.84
2022-11-29T19:04:19.022Z,99231.06
2022-11-29T19:06:49.490Z,99227.03
2022-11-29T19:09:20.842Z,99239.84
2022-11-29T19:11:49.790Z,99233.47
2022-11-29T19:14:19.092Z,99230.41
2022-11-29T19:16:49.365Z,99228.47
2022-11-29T19:19:19.621Z,99230.06
2022-11-29T19:21:49.769Z,99234.63
2022-11-29T19:24:18.991Z,99223.25
2022-11-29T19:26:48.868Z,99224.84
2022-11-29T19:29:17.588Z,99230.59
2022-11-29T19:31:46.230Z,99235.63
2022-11-29T19:34:15.076Z,99229.81
2022-11-29T19:36:45.041Z,99225.78
2022-11-29T19:39:16.794Z,99232.78
2022-11-29T19:41:46.631Z,99230.38
2022-11-29T19:44:15.565Z,99238.97
2022-11-29T19:46:46.842Z,99237.16
2022-11-29T19:49:15.734Z,99242.53
2022-11-29T19:51:44.735Z,99245.31
2022-11-29T19:54:14.798Z,99251.16
2022-11-29T19:56:43.625Z,99260.75
2022-11-29T19:59:12.414Z,99264.97
2022-11-29T20:01:42.691Z,99267.09
2022-11-29T20:04:13.068Z,99260.13
2022-11-29T20:06:42.133Z,99260.91
2022-11-29T20:09:11.179Z,99249.91
2022-11-29T20:11:41.208Z,99257.72
2022-11-29T20:14:12.220Z,99255.91
2022-11-29T20:16:41.168Z,99256.38
2022-11-29T20:19:11.626Z,99259.13
2022-11-29T20:21:43.551Z,99260.31
2022-11-29T20:24:14.269Z,99257.91
2022-11-29T20:26:46.583Z,99255.00
2022-11-29T20:29:15.862Z,99262.81
2022-11-29T20:31:50.127Z,99251.63
2022-11-29T20:34:20.934Z,99253.41
2022-11-29T20:37:17.220Z,99248.19
2022-11-29T20:39:50.390Z,99254.38
2022-11-29T20:42:41.367Z,99251.63
2022-11-29T20:45:12.078Z,99261.56
2022-11-29T20:47:48.737Z,99263.53
2022-11-29T20:50:23.182Z,99257.53
2022-11-29T20:53:18.109Z,99265.88
2022-11-29T20:55:48.390Z,99268.28
2022-11-29T20:58:19.542Z,99271.16
2022-11-29T21:00:48.496Z,99270.63
2022-11-29T21:03:17.603Z,99277.44
2022-11-29T21:05:46.422Z,99278.41
2022-11-29T21:08:16.282Z,99273.75
2022-11-29T21:10:45.363Z,99281.00
2022-11-29T21:13:15.423Z,99267.91
2022-11-29T21:15:46.303Z,99280.03
2022-11-29T21:18:21.903Z,99280.56
2022-11-29T21:21:03.723Z,99266.38
2022-11-29T21:23:40.863Z,99269.97
2022-11-29T21:26:13.910Z,99268.75
2022-11-29T21:28:49.240Z,99277.16
2022-11-29T21:31:19.967Z,99268.91
2022-11-29T21:33:49.100Z,99264.06
2022-11-29T21:36:18.960Z,99266.66
2022-11-29T21:38:52.415Z,99265.50
2022-11-29T21:41:23.536Z,99267.47
2022-11-29T21:44:06.511Z,99269.25
2022-11-29T21:46:37.556Z,99272.03
2022-11-29T21:49:06.570Z,99274.03
2022-11-29T21:51:35.251Z,99276.63
2022-11-29T21:54:03.932Z,99278.25
2022-11-29T21:56:32.609Z,99279.03
2022-11-29T21:59:01.277Z,99279.84
2022-11-29T22:01:30.263Z,99276.97
2022-11-29T22:04:00.426Z,99281.81
2022-11-29T22:06:29.488Z,99281.81
2022-11-29T22:08:59.920Z,99288.34
2022-11-29T22:11:31.747Z,99297.78
2022-11-29T22:14:14.429Z,99291.25
2022-11-29T22:16:44.272Z,99298.56
2022-11-29T22:19:15.346Z,99288.19
2022-11-29T22:21:45.451Z,99292.28
2022-11-29T22:24:15.283Z,99294.53
2022-11-29T22:26:44.520Z,99292.13
2022-11-29T22:29:14.672Z,99298.56
2022-11-29T22:31:44.742Z,99296.16
2022-11-29T22:34:14.793Z,99297.59
2022-11-29T22:36:43.611Z,99291.38
2022-11-29T22:39:12.586Z,99291.25
2022-11-29T22:41:41.768Z,99288.63
2022-11-29T22:44:10.406Z,99287.03
2022-11-29T22:46:41.041Z,99282.78
2022-11-29T22:49:10.518Z,99283.09
2022-11-29T22:51:40.628Z,99281.81
2022-11-29T22:54:11.439Z,99292.59
2022-11-29T22:56:41.258Z,99288.78
2022-11-29T22:59:10.527Z,99289.81
2022-11-29T23:01:40.449Z,99291.06
2022-11-29T23:04:10.229Z,99289.34
2022-11-29T23:06:41.982Z,99290.97
2022-11-29T23:09:15.142Z,99291.75
2022-11-29T23:11:43.969Z,99291.31
2022-11-29T23:14:13.058Z,99288.53
2022-11-29T23:16:41.780Z,99293.28
2022-11-29T23:19:10.504Z,99291.50
2022-11-29T23:21:41.991Z,99293.63
2022-11-29T23:24:10.710Z,99286.47
2022-11-29T23:26:41.444Z,99290.66
2022-11-29T23:29:11.881Z,99291.69
2022-11-29T23:31:41.181Z,99286.81
2022-11-29T23:34:10.132Z,99297.06
2022-11-29T23:36:40.150Z,99295.25
2022-11-29T23:39:08.977Z,99291.84
2022-11-29T23:41:37.902Z,99286.00
2022-11-29T23:44:08.567Z,99281.59
2022-11-29T23:46:37.423Z,99290.84
2022-11-29T23:49:06.047Z,99292.84
2022-11-29T23:51:34.640Z,99287.00
2022-11-29T23:54:04.792Z,99288.00
2022-11-29T23:56:35.411Z,99291.38
2022-11-29T23:59:04.281Z,99284.75
